Time;durP1;ratioP1;P1;durP2;ratioP2;P2;SDS_P1;SDS_P2;PMS_P1;PMS_P2;Temp;Humidity;BMP_temperature;BMP_pressure;BME280_temperature;BME280_humidity;BME280_pressure;Samples;Min_cycle;Max_cycle;Signal;HPM_P1;HPM_P2
2020/12/30 00:01:23;;;;;;;5.65;3.17;;;;;;;1.98;74.12;99035.18;1727191;83;21167;-82
2020/12/30 00:03:50;;;;;;;10.43;3.90;;;;;;;1.97;74.12;99036.14;1728107;83;21292;-81
2020/12/30 00:06:20;;;;;;;7.08;3.10;;;;;;;1.96;74.12;99038.94;1697348;84;21199;-81
2020/12/30 00:08:49;;;;;;;7.20;2.87;;;;;;;1.96;74.10;99031.05;1727897;83;21160;-82
2020/12/30 00:11:18;;;;;;;5.92;2.67;;;;;;;1.95;74.10;99032.02;1697241;84;21144;-82
2020/12/30 00:13:44;;;;;;;5.83;3.23;;;;;;;1.98;74.12;99035.66;1728027;81;21151;-82
2020/12/30 00:16:11;;;;;;;6.12;2.77;;;;;;;2.01;74.12;99034.05;1697252;84;22077;-82
2020/12/30 00:18:37;;;;;;;7.33;3.02;;;;;;;2.02;74.14;99031.77;1728393;83;21581;-82
2020/12/30 00:21:05;;;;;;;10.72;3.33;;;;;;;2.07;74.12;99030.84;1695745;84;21604;-82
2020/12/30 00:23:32;;;;;;;7.72;3.20;;;;;;;2.08;74.12;99025.90;1728435;81;21199;-82
2020/12/30 00:25:58;;;;;;;7.67;3.22;;;;;;;2.05;74.13;99026.20;1697916;84;21592;-82
2020/12/30 00:28:24;;;;;;;6.67;3.27;;;;;;;2.00;74.14;99029.30;1714663;83;21315;-82
2020/12/30 00:30:50;;;;;;;6.78;3.55;;;;;;;1.96;74.14;99035.83;1684721;84;21167;-82
2020/12/30 00:33:17;;;;;;;10.45;3.95;;;;;;;1.94;74.14;99038.25;1675805;84;21202;-82
2020/12/30 00:35:43;;;;;;;10.03;3.75;;;;;;;1.88;74.13;99042.31;1674453;84;21154;-82
2020/12/30 00:38:09;;;;;;;8.10;3.30;;;;;;;1.83;74.15;99047.69;1682043;83;21131;-82
2020/12/30 00:40:36;;;;;;;10.95;3.83;;;;;;;1.81;74.13;99061.44;1694628;84;21263;-82
2020/12/30 00:43:02;;;;;;;7.60;3.17;;;;;;;1.74;74.13;99056.43;1697283;83;21144;-82
2020/12/30 00:45:28;;;;;;;7.53;3.87;;;;;;;1.73;74.13;99058.70;1708314;82;21140;-82
2020/12/30 00:47:55;;;;;;;7.85;3.27;;;;;;;1.70;74.15;99059.84;1707678;83;21656;-82
2020/12/30 00:50:21;;;;;;;10.08;3.85;;;;;;;1.67;74.14;99049.63;1705949;83;21200;-82
2020/12/30 00:52:48;;;;;;;9.53;4.42;;;;;;;1.66;74.17;99062.89;1708027;84;22098;-82
2020/12/30 00:55:14;;;;;;;11.97;4.25;;;;;;;1.61;74.18;99054.64;1708115;84;21184;-82
2020/12/30 00:57:41;;;;;;;7.80;3.50;;;;;;;1.57;74.21;99063.78;1708110;83;21562;-82
2020/12/30 01:00:07;;;;;;;6.42;3.20;;;;;;;1.56;74.26;99062.13;1702506;84;21487;-81
2020/12/30 01:02:33;;;;;;;10.35;3.45;;;;;;;1.51;74.25;99068.63;1678496;84;21151;-82
2020/12/30 01:05:00;;;;;;;8.25;3.72;;;;;;;1.48;74.26;99075.50;1674122;84;22158;-82
2020/12/30 01:07:26;;;;;;;13.53;4.90;;;;;;;1.45;74.28;99078.41;1674387;84;21698;-82
2020/12/30 01:09:52;;;;;;;16.10;4.85;;;;;;;1.45;74.26;99079.73;1674344;84;21150;-82
2020/12/30 01:12:18;;;;;;;15.18;5.62;;;;;;;1.44;74.26;99083.31;1674158;84;21194;-82
2020/12/30 01:14:45;;;;;;;23.00;6.65;;;;;;;1.42;74.29;99085.28;1674550;84;21158;-82
2020/12/30 01:17:11;;;;;;;15.70;5.62;;;;;;;1.44;74.28;99087.77;1687487;84;21177;-82
2020/12/30 01:19:37;;;;;;;14.03;4.30;;;;;;;1.44;74.26;99089.89;1702508;84;21144;-82
2020/12/30 01:22:03;;;;;;;12.13;5.03;;;;;;;1.45;74.28;99098.11;1677630;84;21574;-82
2020/12/30 01:24:30;;;;;;;13.55;5.45;;;;;;;1.42;74.31;99093.16;1674242;84;21203;-82
2020/12/30 01:26:56;;;;;;;15.32;5.08;;;;;;;1.41;74.33;99098.06;1674440;84;21165;-82
2020/12/30 01:29:22;;;;;;;18.52;6.80;;;;;;;1.39;74.33;99103.95;1674409;84;21213;-82
2020/12/30 01:31:49;;;;;;;14.45;5.95;;;;;;;1.34;74.38;99106.17;1674114;84;21166;-82
2020/12/30 01:34:15;;;;;;;17.77;7.45;;;;;;;1.28;74.41;99109.37;1674260;84;21504;-81
2020/12/30 01:36:41;;;;;;;14.73;5.78;;;;;;;1.20;74.44;99113.19;1674319;84;21586;-81
2020/12/30 01:39:08;;;;;;;17.07;6.67;;;;;;;1.15;74.45;99116.74;1674342;85;21898;-82
2020/12/30 01:41:34;;;;;;;20.25;8.33;;;;;;;1.11;74.47;99108.80;1690054;84;21144;-81
2020/12/30 01:44:07;;;;;;;27.50;10.75;;;;;;;1.05;74.49;99115.94;1702270;84;21159;-81
2020/12/30 01:46:40;;;;;;;26.70;10.25;;;;;;;0.99;74.51;99112.06;1702317;84;21192;-82
2020/12/30 01:49:19;;;;;;;23.87;9.78;;;;;;;0.97;74.54;99115.80;1702161;84;21184;-81
2020/12/30 01:51:45;;;;;;;12.18;4.10;;;;;;;0.95;74.56;99106.75;1702329;84;21621;-81
2020/12/30 01:54:13;;;;;;;17.30;5.80;;;;;;;0.95;74.58;99112.51;1702385;84;22079;-82
2020/12/30 01:56:40;;;;;;;13.22;5.60;;;;;;;0.94;74.59;99116.92;1702384;84;21155;-81
2020/12/30 01:59:09;;;;;;;16.42;5.03;;;;;;;0.99;74.62;99116.48;1702475;84;21200;-81
2020/12/30 02:01:39;;;;;;;14.67;5.77;;;;;;;1.00;74.66;99114.20;1689309;84;21140;-81
2020/12/30 02:04:09;;;;;;;12.93;5.72;;;;;;;1.06;74.69;99121.98;1673765;85;21159;-81
2020/12/30 02:06:35;;;;;;;10.82;4.17;;;;;;;1.06;74.74;99118.88;1652580;84;21140;-81
2020/12/30 02:09:05;;;;;;;13.05;5.55;;;;;;;1.09;74.77;99123.84;1702406;82;21620;-81
2020/12/30 02:11:32;;;;;;;12.90;5.62;;;;;;;1.09;74.80;99119.91;1702325;84;21184;-81
2020/12/30 02:14:07;;;;;;;19.52;5.85;;;;;;;1.11;74.84;99119.30;1702265;84;21163;-81
2020/12/30 02:16:50;;;;;;;11.08;5.30;;;;;;;1.11;74.87;99121.09;1701998;84;21200;-81
2020/12/30 02:19:16;;;;;;;13.65;4.78;;;;;;;1.07;74.88;99119.23;1702283;84;21640;-81
2020/12/30 02:21:42;;;;;;;12.07;5.03;;;;;;;1.06;74.91;99125.45;1690852;84;21155;-82
2020/12/30 02:24:33;;;;;;;23.05;8.55;;;;;;;1.08;74.94;99125.32;1673869;85;21151;-82
2020/12/30 02:27:00;;;;;;;19.85;7.05;;;;;;;1.07;74.93;99119.23;1645968;84;21736;-82
2020/12/30 02:29:28;;;;;;;10.38;4.15;;;;;;;1.07;74.95;99127.59;1673907;85;21239;-81
2020/12/30 02:31:54;;;;;;;10.40;4.85;;;;;;;1.06;74.96;99122.83;1673703;85;21226;-81
2020/12/30 02:34:24;;;;;;;11.90;5.20;;;;;;;1.04;75.01;99118.69;1673778;84;21171;-81
2020/12/30 02:36:50;;;;;;;11.03;6.00;;;;;;;1.00;75.02;99115.52;1674001;85;21159;-82
2020/12/30 02:39:17;;;;;;;16.52;6.45;;;;;;;0.95;75.06;99119.07;1673712;85;21367;-81
2020/12/30 02:41:44;;;;;;;15.55;6.83;;;;;;;0.91;75.11;99117.21;1682395;84;21232;-81
2020/12/30 02:44:10;;;;;;;16.85;7.20;;;;;;;0.85;75.13;99115.13;1702202;83;21199;-81
2020/12/30 02:46:37;;;;;;;15.08;7.12;;;;;;;0.79;75.15;99114.86;1702228;83;21157;-81
2020/12/30 02:49:03;;;;;;;18.25;7.25;;;;;;;0.74;75.17;99118.40;1701922;83;21156;-81
2020/12/30 02:51:29;;;;;;;13.85;5.45;;;;;;;0.69;75.20;99117.98;1702319;84;21128;-81
2020/12/30 02:53:56;;;;;;;9.55;4.22;;;;;;;0.65;75.22;99110.87;1702172;84;21191;-81
2020/12/30 02:56:22;;;;;;;11.35;4.62;;;;;;;0.63;75.23;99115.92;1702173;83;21179;-81
2020/12/30 02:58:49;;;;;;;12.80;5.97;;;;;;;0.60;75.26;99118.31;1700372;83;21152;-81
2020/12/30 03:01:15;;;;;;;13.15;5.45;;;;;;;0.56;75.27;99123.99;1686873;84;21167;-81
2020/12/30 03:03:42;;;;;;;17.60;7.60;;;;;;;0.52;75.29;99125.23;1673803;85;21242;-81
2020/12/30 03:06:09;;;;;;;17.27;7.50;;;;;;;0.49;75.34;99131.08;1673733;85;21143;-81
2020/12/30 03:08:36;;;;;;;13.15;5.87;;;;;;;0.49;75.36;99131.08;1673847;85;22191;-81
2020/12/30 03:11:03;;;;;;;10.25;4.55;;;;;;;0.50;75.38;99120.94;1673641;84;21199;-81
2020/12/30 03:13:30;;;;;;;11.15;5.00;;;;;;;0.49;75.40;99129.77;1673568;85;21675;-81
2020/12/30 03:15:56;;;;;;;13.30;5.35;;;;;;;0.46;75.44;99124.80;1673821;85;21143;-81
2020/12/30 03:18:22;;;;;;;11.18;5.62;;;;;;;0.44;75.47;99137.23;1673486;85;21156;-81
2020/12/30 03:20:48;;;;;;;15.63;5.60;;;;;;;0.41;75.50;99131.44;1680834;84;22074;-81
2020/12/30 03:23:15;;;;;;;11.78;5.05;;;;;;;0.40;75.54;99135.84;1701991;84;21636;-81
2020/12/30 03:25:43;;;;;;;8.95;3.87;;;;;;;0.38;75.56;99132.55;1702346;82;21251;-81
2020/12/30 03:28:09;;;;;;;15.88;5.67;;;;;;;0.37;75.59;99136.12;1702399;84;21128;-81
2020/12/30 03:30:36;;;;;;;16.37;7.78;;;;;;;0.36;75.60;99142.33;1702586;83;21152;-81
2020/12/30 03:33:02;;;;;;;13.18;5.62;;;;;;;0.36;75.64;99137.08;1704653;83;21198;-81
2020/12/30 03:35:28;;;;;;;13.53;5.90;;;;;;;0.31;75.65;99139.30;1721265;83;21605;-81
2020/12/30 03:37:55;;;;;;;11.33;5.95;;;;;;;0.31;75.67;99141.09;1721159;83;21152;-81
2020/12/30 03:40:21;;;;;;;17.65;8.13;;;;;;;0.28;75.69;99142.16;1720948;83;21140;-81
2020/12/30 03:42:48;;;;;;;12.78;7.10;;;;;;;0.27;75.72;99143.62;1693596;83;21204;-81
2020/12/30 03:45:15;;;;;;;13.43;6.08;;;;;;;0.23;75.76;99141.76;1692206;84;22115;-81
2020/12/30 03:47:41;;;;;;;15.68;6.75;;;;;;;0.21;75.78;99147.60;1692265;83;21172;-81
2020/12/30 03:50:07;;;;;;;11.05;5.78;;;;;;;0.18;75.81;99141.33;1692276;83;21163;-81
2020/12/30 03:52:34;;;;;;;14.18;5.62;;;;;;;0.18;75.85;99143.95;1692132;84;21131;-81
2020/12/30 03:55:00;;;;;;;10.18;5.03;;;;;;;0.17;75.87;99148.86;1692228;84;21192;-81
2020/12/30 03:57:27;;;;;;;10.45;4.87;;;;;;;0.16;75.90;99147.20;1692106;84;21283;-81
2020/12/30 03:59:53;;;;;;;11.53;5.85;;;;;;;0.14;75.92;99145.17;1692154;84;21568;-81
2020/12/30 04:02:19;;;;;;;9.23;4.95;;;;;;;0.10;75.93;99146.44;1693898;83;21198;-80
2020/12/30 04:04:46;;;;;;;14.13;4.60;;;;;;;0.08;75.96;99152.27;1692294;84;21252;-80
2020/12/30 04:07:13;;;;;;;11.78;6.05;;;;;;;0.05;75.98;99151.23;1692138;84;21159;-81
2020/12/30 04:09:39;;;;;;;8.48;4.83;;;;;;;0.03;75.99;99145.31;1692108;84;22036;-80
2020/12/30 04:12:05;;;;;;;10.00;4.70;;;;;;;0.02;76.02;99150.20;1692050;84;21629;-80
2020/12/30 04:14:31;;;;;;;10.45;4.40;;;;;;;0.02;76.07;99150.20;1692151;84;21156;-80
2020/12/30 04:16:58;;;;;;;21.30;8.85;;;;;;;0.03;76.06;99150.55;1692217;84;21140;-80
2020/12/30 04:19:24;;;;;;;17.92;7.30;;;;;;;0.04;76.10;99146.11;1691869;84;21147;-80
2020/12/30 04:21:50;;;;;;;16.85;6.70;;;;;;;0.03;76.15;99140.08;1701511;83;21637;-80
2020/12/30 04:24:17;;;;;;;11.53;4.47;;;;;;;0.04;76.18;99140.40;1720963;82;21180;-80
2020/12/30 04:26:43;;;;;;;8.03;3.60;;;;;;;0.03;76.20;99134.83;1721094;83;21152;-81
2020/12/30 04:29:09;;;;;;;8.98;4.50;;;;;;;0.04;76.23;99140.88;1721080;83;21200;-80
2020/12/30 04:31:36;;;;;;;12.45;4.90;;;;;;;0.04;76.26;99135.16;1720864;83;21577;-80
2020/12/30 04:34:05;;;;;;;14.30;4.72;;;;;;;0.03;76.26;99134.83;1720943;82;22077;-80
2020/12/30 04:36:32;;;;;;;18.10;4.92;;;;;;;0.04;76.28;99131.23;1712334;83;21183;-80
2020/12/30 04:38:58;;;;;;;11.78;5.20;;;;;;;0.04;76.30;99136.47;1692176;84;21283;-81
2020/12/30 04:41:30;;;;;;;9.50;4.33;;;;;;;0.05;76.31;99129.44;1710614;83;21183;-81
2020/12/30 04:43:56;;;;;;;9.43;4.92;;;;;;;0.05;76.32;99138.13;1720872;83;21164;-80
2020/12/30 04:46:22;;;;;;;7.35;4.03;;;;;;;0.05;76.33;99132.06;1721004;83;21268;-81
2020/12/30 04:48:48;;;;;;;7.85;4.22;;;;;;;0.06;76.35;99141.11;1720721;83;21155;-81
2020/12/30 04:51:15;;;;;;;43.85;18.87;;;;;;;0.07;76.38;99140.13;1721039;83;21597;-81
2020/12/30 04:53:41;;;;;;;32.67;14.68;;;;;;;0.09;76.39;99138.22;1650656;83;21176;-81
2020/12/30 04:56:07;;;;;;;14.40;7.20;;;;;;;0.11;76.44;99140.20;1721019;83;21164;-80
2020/12/30 04:58:34;;;;;;;9.35;4.45;;;;;;;0.11;76.45;99144.61;1720907;82;22100;-81
2020/12/30 05:01:00;;;;;;;9.28;4.72;;;;;;;0.11;76.48;99150.69;1661077;85;21170;-81
2020/12/30 05:03:31;;;;;;;10.55;5.10;;;;;;;0.09;76.48;99147.39;1687076;85;21163;-80
2020/12/30 05:06:06;;;;;;;12.35;5.55;;;;;;;0.08;76.50;99145.72;1687043;83;21184;-80
2020/12/30 05:08:35;;;;;;;7.78;4.75;;;;;;;0.06;76.51;99151.59;1687268;85;21187;-80
2020/12/30 05:11:01;;;;;;;14.43;6.85;;;;;;;0.06;76.54;99158.14;1663142;85;21215;-80
2020/12/30 05:13:28;;;;;;;12.07;5.83;;;;;;;0.04;76.55;99160.05;1687141;83;21194;-81
2020/12/30 05:15:59;;;;;;;11.53;6.33;;;;;;;0.03;76.57;99158.42;1687018;85;21608;-81
2020/12/30 05:18:25;;;;;;;9.83;5.05;;;;;;;0.00;76.58;99161.31;1687157;83;21433;-81
2020/12/30 05:20:52;;;;;;;9.50;4.83;;;;;;;-0.03;76.61;99164.17;1688733;83;21557;-81
2020/12/30 05:23:18;;;;;;;8.98;4.35;;;;;;;-0.05;76.62;99163.01;1673094;85;21598;-80
2020/12/30 05:25:44;;;;;;;8.83;5.15;;;;;;;-0.05;76.65;99160.86;1673078;84;21200;-80
2020/12/30 05:28:13;;;;;;;11.20;4.47;;;;;;;-0.04;76.65;99167.77;1693910;83;21164;-80
2020/12/30 05:30:43;;;;;;;12.93;5.80;;;;;;;-0.02;76.69;99171.08;1692137;83;21657;-80
2020/12/30 05:33:10;;;;;;;13.35;6.65;;;;;;;0.00;76.71;99169.17;1691915;84;21160;-80
2020/12/30 05:35:36;;;;;;;32.42;15.30;;;;;;;0.01;76.73;99173.42;1692158;83;21561;-80
2020/12/30 05:38:03;;;;;;;26.25;14.80;;;;;;;0.03;76.76;99182.00;1692044;84;21243;-80
2020/12/30 05:40:31;;;;;;;33.15;16.70;;;;;;;0.04;76.76;99183.64;1701432;83;21166;-80
2020/12/30 05:43:15;;;;;;;22.80;11.78;;;;;;;0.04;76.80;99182.33;1721061;83;21155;-80
2020/12/30 05:45:52;;;;;;;25.20;12.73;;;;;;;0.02;76.82;99180.33;1720774;83;21148;-81
2020/12/30 05:48:19;;;;;;;16.70;8.35;;;;;;;-0.02;76.85;99180.25;1720958;83;21223;-81
2020/12/30 05:50:51;;;;;;;14.60;7.60;;;;;;;-0.05;76.87;99177.90;1720893;83;21211;-80
2020/12/30 05:53:18;;;;;;;15.68;7.87;;;;;;;-0.07;76.87;99180.64;1720585;83;21143;-80
2020/12/30 05:55:47;;;;;;;19.73;6.85;;;;;;;-0.08;76.88;99188.65;1721123;83;21156;-81
2020/12/30 05:58:14;;;;;;;14.18;5.67;;;;;;;-0.10;76.91;99181.38;1720618;83;21173;-81
2020/12/30 06:00:40;;;;;;;12.50;5.72;;;;;;;-0.10;76.91;99182.69;1712709;83;21213;-80
2020/12/30 06:03:07;;;;;;;11.85;6.35;;;;;;;-0.10;76.94;99181.38;1691972;84;21184;-81
2020/12/30 06:05:33;;;;;;;15.20;6.00;;;;;;;-0.10;76.97;99178.77;1692068;84;21613;-80
2020/12/30 06:07:59;;;;;;;16.35;7.40;;;;;;;-0.10;76.98;99181.38;1691981;84;21697;-81
2020/12/30 06:10:27;;;;;;;14.45;6.75;;;;;;;-0.12;76.98;99178.08;1692208;84;21184;-81
2020/12/30 06:12:58;;;;;;;14.45;6.92;;;;;;;-0.12;77.01;99185.94;1693939;83;21232;-80
2020/12/30 06:15:26;;;;;;;15.40;7.05;;;;;;;-0.12;77.06;99182.01;1691608;84;21191;-80
2020/12/30 06:17:59;;;;;;;13.32;6.85;;;;;;;-0.11;77.08;99191.53;1692278;83;21608;-80
2020/12/30 06:20:32;;;;;;;22.85;9.15;;;;;;;-0.13;77.12;99184.27;1692078;83;21199;-80
2020/12/30 06:23:03;;;;;;;18.60;9.43;;;;;;;-0.12;77.14;99197.73;1691877;84;21656;-81
2020/12/30 06:25:32;;;;;;;22.07;8.93;;;;;;;-0.14;77.19;99198.36;1691743;84;22176;-80
2020/12/30 06:28:20;;;;;;;22.50;9.93;;;;;;;-0.16;77.20;99200.26;1692109;84;21171;-80
2020/12/30 06:30:49;;;;;;;25.97;9.80;;;;;;;-0.19;77.23;99200.52;1692035;84;21181;-80
2020/12/30 06:33:15;;;;;;;20.92;9.93;;;;;;;-0.21;77.27;99211.62;1697413;83;21164;-80
2020/12/30 06:35:43;;;;;;;28.25;10.72;;;;;;;-0.24;77.29;99208.77;1705819;83;21148;-80
2020/12/30 06:38:28;;;;;;;18.27;8.70;;;;;;;-0.25;77.32;99211.53;1702159;84;21282;-81
2020/12/30 06:41:09;;;;;;;20.55;8.68;;;;;;;-0.26;77.33;99207.25;1702329;83;21175;-80
2020/12/30 06:43:47;;;;;;;30.50;11.95;;;;;;;-0.25;77.36;99216.77;1702367;84;21184;-80
2020/12/30 06:46:25;;;;;;;108.60;30.68;;;;;;;-0.24;77.37;99218.41;1702119;84;21148;-80
2020/12/30 06:48:56;;;;;;;72.75;20.95;;;;;;;-0.27;77.38;99219.98;1702334;84;21589;-80
2020/12/30 06:51:23;;;;;;;23.87;9.58;;;;;;;-0.32;77.40;99226.11;1702300;84;22183;-81
2020/12/30 06:53:53;;;;;;;14.70;7.40;;;;;;;-0.35;77.44;99243.40;1693343;84;21551;-80
2020/12/30 06:56:42;;;;;;;18.87;8.73;;;;;;;-0.32;77.46;99239.20;1673424;85;21207;-80
2020/12/30 06:59:14;;;;;;;16.65;8.60;;;;;;;-0.21;77.48;99234.70;1674051;85;21735;-80
2020/12/30 07:02:00;;;;;;;25.77;10.82;;;;;;;-0.15;77.49;99237.30;1670857;85;21140;-80
2020/12/30 07:04:30;;;;;;;23.65;10.63;;;;;;;-0.15;77.52;99236.81;1673863;85;21176;-81
2020/12/30 07:06:57;;;;;;;21.55;9.28;;;;;;;-0.17;77.54;99245.27;1687038;84;21581;-80
2020/12/30 07:09:38;;;;;;;22.27;9.35;;;;;;;-0.20;77.60;99248.63;1702388;84;21160;-80
2020/12/30 07:12:07;;;;;;;20.57;8.95;;;;;;;-0.20;77.62;99244.70;1702383;84;21127;-80
2020/12/30 07:14:35;;;;;;;16.55;8.48;;;;;;;-0.19;77.64;99243.75;1687769;84;21187;-80
2020/12/30 07:17:03;;;;;;;22.05;9.10;;;;;;;-0.19;77.64;99255.54;1673828;85;21216;-81
2020/12/30 07:19:31;;;;;;;40.90;13.35;;;;;;;-0.16;77.66;99253.48;1673951;85;21806;-80
2020/12/30 07:22:11;;;;;;;25.92;10.45;;;;;;;-0.16;77.68;99255.27;1673968;85;21152;-80
2020/12/30 07:24:54;;;;;;;30.72;13.22;;;;;;;-0.17;77.69;99257.06;1674030;84;21146;-80
2020/12/30 07:27:21;;;;;;;20.17;10.20;;;;;;;-0.18;77.74;99258.05;1673666;85;21175;-81
2020/12/30 07:29:48;;;;;;;23.42;11.03;;;;;;;-0.18;77.79;99265.90;1673809;85;21179;-80
2020/12/30 07:32:16;;;;;;;27.15;11.57;;;;;;;-0.16;77.80;99262.66;1673820;84;21195;-80
2020/12/30 07:34:48;;;;;;;29.98;12.18;;;;;;;-0.14;77.84;99262.55;1691848;83;21128;-81
2020/12/30 07:37:15;;;;;;;27.02;12.23;;;;;;;-0.14;77.83;99264.66;1720969;83;21148;-80
2020/12/30 07:39:47;;;;;;;35.83;13.70;;;;;;;-0.12;77.85;99267.16;1707480;83;21177;-80
2020/12/30 07:42:19;;;;;;;31.20;12.45;;;;;;;-0.11;77.88;99260.48;1719883;83;22237;-80
2020/12/30 07:44:50;;;;;;;27.52;12.43;;;;;;;-0.07;77.88;99263.68;1706732;82;21620;-80
2020/12/30 07:47:17;;;;;;;29.80;14.28;;;;;;;-0.03;77.90;99269.81;1662712;85;21221;-80
2020/12/30 07:49:43;;;;;;;32.75;13.65;;;;;;;0.05;77.89;99274.41;1705060;83;21176;-80
2020/12/30 07:52:10;;;;;;;31.85;13.60;;;;;;;0.08;77.91;99271.52;1700747;83;21152;-80
2020/12/30 07:54:36;;;;;;;35.17;14.38;;;;;;;0.12;77.93;99278.16;1681698;84;21193;-80
2020/12/30 07:57:10;;;;;;;53.55;16.82;;;;;;;0.15;77.93;99273.96;1669636;86;21182;-80
2020/12/30 07:59:38;;;;;;;40.17;13.68;;;;;;;0.21;77.94;99287.84;1669351;86;21158;-80
2020/12/30 08:02:10;;;;;;;33.42;12.20;;;;;;;0.26;77.96;99288.30;1675264;84;21199;-80
2020/12/30 08:04:38;;;;;;;33.70;14.58;;;;;;;0.30;77.96;99284.45;1681975;84;21191;-80
2020/12/30 08:07:06;;;;;;;48.15;18.02;;;;;;;0.36;77.98;99295.71;1677190;84;22214;-80
2020/12/30 08:09:34;;;;;;;49.25;17.67;;;;;;;0.41;78.01;99296.16;1689426;84;21224;-80
2020/12/30 08:12:04;;;;;;;36.55;13.55;;;;;;;0.47;78.03;99294.30;1694190;84;21202;-80
2020/12/30 08:14:30;;;;;;;43.90;18.95;;;;;;;0.54;78.03;99293.28;1683449;84;21224;-80
2020/12/30 08:17:01;;;;;;;59.63;25.02;;;;;;;0.61;78.03;99294.89;1697859;84;21120;-80
2020/12/30 08:19:43;;;;;;;39.42;18.17;;;;;;;0.67;78.02;99297.00;1688057;84;21204;-80
2020/12/30 08:22:17;;;;;;;36.58;14.18;;;;;;;0.73;78.02;99299.07;1699832;84;21144;-80
2020/12/30 08:24:52;;;;;;;36.42;14.10;;;;;;;0.80;78.02;99302.81;1683974;83;21248;-79
2020/12/30 08:27:22;;;;;;;31.80;13.13;;;;;;;0.88;78.02;99312.16;1699371;84;21180;-79
2020/12/30 08:29:48;;;;;;;25.80;11.40;;;;;;;0.93;78.01;99309.95;1692618;83;21197;-80
2020/12/30 08:32:35;;;;;;;25.62;12.20;;;;;;;1.00;78.00;99315.00;1683078;83;21827;-80
2020/12/30 08:35:11;;;;;;;29.85;13.58;;;;;;;1.07;77.99;99320.53;1673923;84;21215;-80
2020/12/30 08:37:46;;;;;;;30.10;13.10;;;;;;;1.13;78.00;99316.88;1671271;84;21615;-80
2020/12/30 08:40:18;;;;;;;41.05;15.80;;;;;;;1.25;77.98;99315.79;1672267;84;21134;-80
2020/12/30 08:46:06;;;;;;;49.93;19.10;;;;;;;1.48;77.94;99330.30;1810267;78;22836;-80
2020/12/30 08:48:35;;;;;;;37.53;15.55;;;;;;;1.54;77.90;99334.66;1794621;79;21167;-80
2020/12/30 08:51:02;;;;;;;36.88;15.68;;;;;;;1.64;77.87;99335.48;1789013;79;21252;-79
2020/12/30 08:53:39;;;;;;;44.33;21.25;;;;;;;1.72;77.80;99338.25;1778095;79;21218;-80
2020/12/30 08:56:06;;;;;;;63.20;25.48;;;;;;;1.82;77.77;99332.02;1769484;79;21148;-80
2020/12/30 08:58:33;;;;;;;41.02;21.50;;;;;;;1.99;77.75;99343.59;1783855;79;21143;-80
2020/12/30 09:00:59;;;;;;;51.40;23.10;;;;;;;2.13;77.71;99345.78;1765771;78;21127;-80
2020/12/30 09:03:28;;;;;;;56.65;24.37;;;;;;;2.28;77.65;99349.62;1792157;79;21160;-80
2020/12/30 09:08:47;;;;;;;55.08;21.40;;;;;;;2.51;77.54;99358.81;1670066;83;21650;-80
2020/12/30 09:11:17;;;;;;;25.10;11.93;;;;;;;2.67;77.49;99357.37;1621131;86;21230;-81
2020/12/30 09:13:43;;;;;;;40.60;16.75;;;;;;;2.77;77.42;99353.72;1647209;86;21203;-80
2020/12/30 09:18:50;;;;;;;54.33;21.10;;;;;;;2.95;77.31;99343.23;1799272;77;23449;-81
2020/12/30 09:21:23;;;;;;;156.32;57.43;;;;;;;2.95;77.23;99348.50;1780253;80;21733;-81
2020/12/30 09:23:49;;;;;;;137.50;57.60;;;;;;;2.95;77.16;99343.23;1778781;80;21168;-81
2020/12/30 09:26:28;;;;;;;69.62;34.53;;;;;;;2.98;77.08;99345.56;1719205;83;21164;-81
2020/12/30 09:28:54;;;;;;;46.70;21.33;;;;;;;2.99;77.01;99338.02;1720141;83;21180;-81
2020/12/30 09:31:21;;;;;;;22.35;12.05;;;;;;;3.02;76.95;99337.72;1748568;81;21206;-81
2020/12/30 09:33:48;;;;;;;42.88;20.40;;;;;;;3.04;76.89;99331.80;1749588;80;21144;-81
2020/12/30 09:36:14;;;;;;;49.53;25.08;;;;;;;3.07;76.81;99338.08;1722545;83;21738;-81
2020/12/30 09:38:41;;;;;;;36.00;19.55;;;;;;;3.11;76.70;99337.30;1695377;84;21196;-81
2020/12/30 09:41:13;;;;;;;39.98;21.55;;;;;;;3.15;76.62;99335.55;1697666;83;21196;-81
2020/12/30 09:43:45;;;;;;;30.48;18.40;;;;;;;3.20;76.57;99328.52;1709561;81;21251;-80
2020/12/30 09:46:20;;;;;;;36.25;20.37;;;;;;;3.25;76.45;99329.72;1695570;84;21156;-81
2020/12/30 09:48:47;;;;;;;49.13;23.67;;;;;;;3.31;76.37;99327.79;1722551;83;22058;-81
2020/12/30 09:51:15;;;;;;;44.60;21.45;;;;;;;3.38;76.25;99327.53;1723958;82;21188;-81
2020/12/30 09:53:43;;;;;;;23.52;13.25;;;;;;;3.47;76.16;99326.64;1724371;81;21144;-81
2020/12/30 09:56:14;;;;;;;23.92;11.08;;;;;;;3.56;76.04;99326.69;1715031;82;21742;-81
2020/12/30 09:58:40;;;;;;;11.93;6.72;;;;;;;3.64;75.92;99328.09;1711622;83;21604;-81
2020/12/30 10:01:06;;;;;;;15.05;5.40;;;;;;;3.76;75.79;99322.92;1713674;83;21917;-82
2020/12/30 10:03:32;;;;;;;17.25;8.25;;;;;;;3.85;75.64;99319.36;1715430;83;21605;-81
2020/12/30 10:05:59;;;;;;;22.60;8.03;;;;;;;3.93;75.52;99323.38;1705971;81;21198;-82
2020/12/30 10:08:25;;;;;;;17.32;7.28;;;;;;;4.00;75.38;99326.57;1717068;81;21160;-81
2020/12/30 10:10:51;;;;;;;32.80;13.30;;;;;;;4.10;75.24;99317.23;1688982;84;21142;-81
2020/12/30 10:13:17;;;;;;;33.60;14.80;;;;;;;4.18;75.11;99321.73;1700333;84;21196;-82
2020/12/30 10:15:44;;;;;;;39.53;18.65;;;;;;;4.22;74.99;99315.97;1701020;83;21179;-81
2020/12/30 10:18:10;;;;;;;16.42;8.13;;;;;;;4.30;74.87;99318.66;1691726;84;21543;-81
2020/12/30 10:20:36;;;;;;;25.60;10.95;;;;;;;4.32;74.75;99314.08;1694635;84;21148;-81
2020/12/30 10:23:03;;;;;;;30.82;12.37;;;;;;;4.37;74.65;99321.02;1700659;84;21179;-81
2020/12/30 10:25:29;;;;;;;28.55;11.28;;;;;;;4.40;74.52;99315.41;1694576;84;21227;-82
2020/12/30 10:27:56;;;;;;;22.85;8.00;;;;;;;4.44;74.40;99317.25;1698173;84;21191;-82
2020/12/30 10:30:22;;;;;;;11.25;5.55;;;;;;;4.46;74.27;99308.70;1692472;84;21157;-82
2020/12/30 10:32:49;;;;;;;16.10;5.87;;;;;;;4.46;74.15;99310.02;1691650;84;21147;-83
2020/12/30 10:35:15;;;;;;;16.97;7.33;;;;;;;4.47;74.05;99308.52;1701164;83;21220;-83
2020/12/30 10:37:41;;;;;;;11.75;6.28;;;;;;;4.50;73.89;99312.16;1697752;83;21275;-83
2020/12/30 10:40:08;;;;;;;11.18;5.90;;;;;;;4.52;73.76;99308.89;1680564;84;21249;-82
2020/12/30 10:42:34;;;;;;;10.20;5.70;;;;;;;4.54;73.60;99306.91;1690410;84;21167;-82
2020/12/30 10:45:00;;;;;;;14.47;7.70;;;;;;;4.54;73.48;99305.58;1676581;84;21159;-83
2020/12/30 10:47:27;;;;;;;32.40;13.15;;;;;;;4.57;73.35;99312.88;1698644;84;21155;-82
2020/12/30 10:49:53;;;;;;;40.38;15.35;;;;;;;4.56;73.19;99311.20;1687785;85;22693;-82
2020/12/30 10:52:19;;;;;;;24.85;11.88;;;;;;;4.58;73.08;99299.98;1674157;84;21605;-82
2020/12/30 10:54:45;;;;;;;18.73;8.48;;;;;;;4.59;72.97;99297.20;1684587;82;21183;-82
2020/12/30 10:57:12;;;;;;;23.02;7.78;;;;;;;4.61;72.90;99300.49;1675245;85;21223;-82
2020/12/30 10:59:38;;;;;;;14.53;6.12;;;;;;;4.64;72.79;99294.09;1681799;84;21150;-82
2020/12/30 11:02:04;;;;;;;15.85;5.30;;;;;;;4.64;72.67;99294.09;1673168;85;21281;-83
2020/12/30 11:04:30;;;;;;;17.57;5.65;;;;;;;4.64;72.57;99295.41;1705916;82;21179;-81
2020/12/30 11:06:57;;;;;;;11.00;5.10;;;;;;;4.64;72.45;99295.41;1704366;82;21243;-82
2020/12/30 11:09:23;;;;;;;11.15;4.47;;;;;;;4.65;72.34;99293.08;1717493;83;21208;-82
2020/12/30 11:11:49;;;;;;;13.32;7.65;;;;;;;4.67;72.21;99291.13;1720862;83;21162;-82
2020/12/30 11:14:15;;;;;;;18.37;7.75;;;;;;;4.68;72.12;99294.91;1694978;84;22102;-82
2020/12/30 11:16:48;;;;;;;25.65;11.68;;;;;;;4.72;72.02;99292.28;1698328;83;21597;-80
2020/12/30 11:19:14;;;;;;;15.98;7.25;;;;;;;4.73;71.94;99289.16;1693956;84;21213;-80
2020/12/30 11:21:40;;;;;;;11.63;5.53;;;;;;;4.76;71.85;99290.16;1674490;84;21137;-79
2020/12/30 11:24:07;;;;;;;15.83;6.87;;;;;;;4.77;71.75;99291.81;1676338;84;21142;-79
2020/12/30 11:26:33;;;;;;;13.32;5.45;;;;;;;4.77;71.65;99287.37;1674021;84;21256;-79
2020/12/30 11:28:59;;;;;;;14.83;6.72;;;;;;;4.81;71.57;99290.52;1692386;82;21230;-79
2020/12/30 11:31:26;;;;;;;12.25;4.97;;;;;;;4.83;71.46;99289.84;1678092;84;21187;-80
2020/12/30 11:33:52;;;;;;;11.90;5.60;;;;;;;4.83;71.39;99287.20;1681424;84;21603;-80
2020/12/30 11:36:18;;;;;;;16.70;7.12;;;;;;;4.81;71.27;99286.55;1702887;84;21652;-80
2020/12/30 11:38:44;;;;;;;16.57;8.08;;;;;;;4.81;71.21;99285.23;1702748;84;21573;-80
2020/12/30 11:41:11;;;;;;;19.42;10.93;;;;;;;4.80;71.12;99291.49;1702739;84;21163;-80
2020/12/30 11:43:37;;;;;;;12.98;7.92;;;;;;;4.80;71.03;99288.85;1702778;84;21139;-80